sensor_id;sensor_type;location;lat;lon;timestamp;P1;durP1;ratioP1;P2;durP2;ratioP2
34200;SDS011;20469;55.638;37.670;2024-02-28T00:00:05;11.05;;;5.53;;
34200;SDS011;20469;55.638;37.670;2024-02-28T00:02:33;9.35;;;5.07;;
34200;SDS011;20469;55.638;37.670;2024-02-28T00:05:02;11.18;;;6.13;;
34200;SDS011;20469;55.638;37.670;2024-02-28T00:07:31;9.10;;;5.40;;
34200;SDS011;20469;55.638;37.670;2024-02-28T00:09:59;10.25;;;5.40;;
34200;SDS011;20469;55.638;37.670;2024-02-28T00:12:27;9.73;;;6.38;;
34200;SDS011;20469;55.638;37.670;2024-02-28T00:14:55;10.27;;;5.38;;
34200;SDS011;20469;55.638;37.670;2024-02-28T00:17:23;12.93;;;5.70;;
34200;SDS011;20469;55.638;37.670;2024-02-28T00:19:52;12.05;;;6.07;;
34200;SDS011;20469;55.638;37.670;2024-02-28T00:22:20;10.27;;;5.63;;
34200;SDS011;20469;55.638;37.670;2024-02-28T00:24:48;12.23;;;5.93;;
34200;SDS011;20469;55.638;37.670;2024-02-28T00:27:16;9.93;;;5.65;;
34200;SDS011;20469;55.638;37.670;2024-02-28T00:29:43;9.30;;;5.30;;
34200;SDS011;20469;55.638;37.670;2024-02-28T00:32:12;9.32;;;4.80;;
34200;SDS011;20469;55.638;37.670;2024-02-28T00:34:40;11.07;;;6.05;;
34200;SDS011;20469;55.638;37.670;2024-02-28T00:37:09;10.88;;;5.65;;
34200;SDS011;20469;55.638;37.670;2024-02-28T00:39:37;13.05;;;5.05;;
34200;SDS011;20469;55.638;37.670;2024-02-28T00:42:04;7.80;;;4.75;;
34200;SDS011;20469;55.638;37.670;2024-02-28T00:44:32;9.73;;;5.03;;
34200;SDS011;20469;55.638;37.670;2024-02-28T00:47:00;10.55;;;5.05;;
34200;SDS011;20469;55.638;37.670;2024-02-28T00:49:28;10.90;;;5.35;;
34200;SDS011;20469;55.638;37.670;2024-02-28T00:51:55;9.65;;;5.57;;
34200;SDS011;20469;55.638;37.670;2024-02-28T00:54:23;10.88;;;5.28;;
34200;SDS011;20469;55.638;37.670;2024-02-28T00:56:52;13.93;;;5.63;;
34200;SDS011;20469;55.638;37.670;2024-02-28T00:59:20;10.18;;;5.65;;
34200;SDS011;20469;55.638;37.670;2024-02-28T01:01:48;11.15;;;5.40;;
34200;SDS011;20469;55.638;37.670;2024-02-28T01:04:19;11.73;;;5.60;;
34200;SDS011;20469;55.638;37.670;2024-02-28T01:06:47;12.30;;;5.95;;
34200;SDS011;20469;55.638;37.670;2024-02-28T01:09:15;11.60;;;6.05;;
34200;SDS011;20469;55.638;37.670;2024-02-28T01:11:43;11.80;;;5.88;;
34200;SDS011;20469;55.638;37.670;2024-02-28T01:14:11;11.35;;;5.80;;
34200;SDS011;20469;55.638;37.670;2024-02-28T01:16:39;10.00;;;6.00;;
34200;SDS011;20469;55.638;37.670;2024-02-28T01:19:07;11.80;;;6.30;;
34200;SDS011;20469;55.638;37.670;2024-02-28T01:21:34;9.00;;;5.60;;
34200;SDS011;20469;55.638;37.670;2024-02-28T01:24:03;13.90;;;5.68;;
34200;SDS011;20469;55.638;37.670;2024-02-28T01:26:32;10.48;;;6.13;;
34200;SDS011;20469;55.638;37.670;2024-02-28T01:29:00;9.63;;;5.80;;
34200;SDS011;20469;55.638;37.670;2024-02-28T01:31:29;13.18;;;6.50;;
34200;SDS011;20469;55.638;37.670;2024-02-28T01:33:57;9.20;;;5.43;;
34200;SDS011;20469;55.638;37.670;2024-02-28T01:36:26;9.68;;;5.78;;
34200;SDS011;20469;55.638;37.670;2024-02-28T01:38:54;12.57;;;5.40;;
34200;SDS011;20469;55.638;37.670;2024-02-28T01:41:21;12.40;;;5.50;;
34200;SDS011;20469;55.638;37.670;2024-02-28T01:43:49;11.77;;;5.80;;
34200;SDS011;20469;55.638;37.670;2024-02-28T01:46:22;9.45;;;5.40;;
34200;SDS011;20469;55.638;37.670;2024-02-28T01:48:51;10.88;;;5.93;;
34200;SDS011;20469;55.638;37.670;2024-02-28T01:51:19;11.73;;;6.00;;
34200;SDS011;20469;55.638;37.670;2024-02-28T01:53:48;11.35;;;5.68;;
34200;SDS011;20469;55.638;37.670;2024-02-28T01:56:17;10.25;;;5.75;;
34200;SDS011;20469;55.638;37.670;2024-02-28T01:58:46;10.82;;;6.10;;
34200;SDS011;20469;55.638;37.670;2024-02-28T02:01:14;10.55;;;5.65;;
34200;SDS011;20469;55.638;37.670;2024-02-28T02:03:43;10.63;;;5.25;;
34200;SDS011;20469;55.638;37.670;2024-02-28T02:06:12;11.48;;;5.88;;
34200;SDS011;20469;55.638;37.670;2024-02-28T02:08:40;10.50;;;5.45;;
34200;SDS011;20469;55.638;37.670;2024-02-28T02:11:07;14.23;;;5.63;;
34200;SDS011;20469;55.638;37.670;2024-02-28T02:13:35;11.98;;;5.90;;
34200;SDS011;20469;55.638;37.670;2024-02-28T02:16:14;10.05;;;5.78;;
34200;SDS011;20469;55.638;37.670;2024-02-28T02:18:43;10.80;;;5.32;;
34200;SDS011;20469;55.638;37.670;2024-02-28T02:21:12;12.10;;;5.57;;
34200;SDS011;20469;55.638;37.670;2024-02-28T02:23:40;10.13;;;6.07;;
34200;SDS011;20469;55.638;37.670;2024-02-28T02:26:08;10.05;;;5.75;;
34200;SDS011;20469;55.638;37.670;2024-02-28T02:28:36;11.52;;;5.80;;
34200;SDS011;20469;55.638;37.670;2024-02-28T02:31:04;9.70;;;5.38;;
34200;SDS011;20469;55.638;37.670;2024-02-28T02:33:32;9.35;;;5.40;;
34200;SDS011;20469;55.638;37.670;2024-02-28T02:35:59;11.43;;;5.88;;
34200;SDS011;20469;55.638;37.670;2024-02-28T02:38:27;12.27;;;5.65;;
34200;SDS011;20469;55.638;37.670;2024-02-28T02:40:55;13.93;;;6.47;;
34200;SDS011;20469;55.638;37.670;2024-02-28T02:43:23;10.23;;;5.30;;
34200;SDS011;20469;55.638;37.670;2024-02-28T02:45:51;13.20;;;6.35;;
34200;SDS011;20469;55.638;37.670;2024-02-28T02:48:19;10.90;;;5.63;;
34200;SDS011;20469;55.638;37.670;2024-02-28T02:50:46;9.95;;;5.78;;
34200;SDS011;20469;55.638;37.670;2024-02-28T02:53:14;9.83;;;5.90;;
34200;SDS011;20469;55.638;37.670;2024-02-28T02:55:43;9.00;;;5.45;;
34200;SDS011;20469;55.638;37.670;2024-02-28T02:58:10;11.50;;;6.45;;
34200;SDS011;20469;55.638;37.670;2024-02-28T03:00:38;10.35;;;5.97;;
34200;SDS011;20469;55.638;37.670;2024-02-28T03:03:06;12.52;;;5.80;;
34200;SDS011;20469;55.638;37.670;2024-02-28T03:05:35;11.55;;;5.85;;
34200;SDS011;20469;55.638;37.670;2024-02-28T03:08:03;13.73;;;6.07;;
34200;SDS011;20469;55.638;37.670;2024-02-28T03:10:31;9.52;;;5.85;;
34200;SDS011;20469;55.638;37.670;2024-02-28T03:12:59;11.20;;;5.70;;
34200;SDS011;20469;55.638;37.670;2024-02-28T03:15:28;9.75;;;5.47;;
34200;SDS011;20469;55.638;37.670;2024-02-28T03:17:56;12.35;;;5.47;;
34200;SDS011;20469;55.638;37.670;2024-02-28T03:20:24;16.15;;;5.70;;
34200;SDS011;20469;55.638;37.670;2024-02-28T03:22:52;10.57;;;5.80;;
34200;SDS011;20469;55.638;37.670;2024-02-28T03:25:20;12.45;;;5.97;;
34200;SDS011;20469;55.638;37.670;2024-02-28T03:27:48;11.00;;;5.55;;
34200;SDS011;20469;55.638;37.670;2024-02-28T03:30:16;10.30;;;5.55;;
34200;SDS011;20469;55.638;37.670;2024-02-28T03:32:44;10.18;;;5.80;;
34200;SDS011;20469;55.638;37.670;2024-02-28T03:35:12;10.13;;;5.50;;
34200;SDS011;20469;55.638;37.670;2024-02-28T03:37:40;9.30;;;5.18;;
34200;SDS011;20469;55.638;37.670;2024-02-28T03:40:08;17.15;;;6.40;;
34200;SDS011;20469;55.638;37.670;2024-02-28T03:42:35;11.93;;;5.68;;
34200;SDS011;20469;55.638;37.670;2024-02-28T03:45:04;12.35;;;5.05;;
34200;SDS011;20469;55.638;37.670;2024-02-28T03:47:32;11.43;;;5.97;;
34200;SDS011;20469;55.638;37.670;2024-02-28T03:50:00;10.27;;;5.72;;
34200;SDS011;20469;55.638;37.670;2024-02-28T03:52:30;12.75;;;5.82;;
34200;SDS011;20469;55.638;37.670;2024-02-28T03:54:58;10.70;;;5.82;;
34200;SDS011;20469;55.638;37.670;2024-02-28T03:57:26;10.00;;;5.70;;
34200;SDS011;20469;55.638;37.670;2024-02-28T03:59:54;10.98;;;5.47;;
34200;SDS011;20469;55.638;37.670;2024-02-28T04:02:21;13.57;;;5.35;;
34200;SDS011;20469;55.638;37.670;2024-02-28T04:04:50;10.73;;;5.75;;
34200;SDS011;20469;55.638;37.670;2024-02-28T04:07:17;10.82;;;5.68;;
34200;SDS011;20469;55.638;37.670;2024-02-28T04:09:46;11.60;;;5.85;;
34200;SDS011;20469;55.638;37.670;2024-02-28T04:12:13;11.75;;;6.22;;
34200;SDS011;20469;55.638;37.670;2024-02-28T04:14:41;11.88;;;5.90;;
34200;SDS011;20469;55.638;37.670;2024-02-28T04:17:09;33.20;;;15.00;;
34200;SDS011;20469;55.638;37.670;2024-02-28T04:19:36;16.42;;;7.70;;
34200;SDS011;20469;55.638;37.670;2024-02-28T04:22:06;18.27;;;7.90;;
34200;SDS011;20469;55.638;37.670;2024-02-28T04:24:34;14.75;;;6.50;;
34200;SDS011;20469;55.638;37.670;2024-02-28T04:27:02;15.05;;;7.35;;
34200;SDS011;20469;55.638;37.670;2024-02-28T04:29:32;24.38;;;8.38;;
34200;SDS011;20469;55.638;37.670;2024-02-28T04:32:00;20.58;;;8.35;;
34200;SDS011;20469;55.638;37.670;2024-02-28T04:34:28;15.93;;;7.55;;
34200;SDS011;20469;55.638;37.670;2024-02-28T04:36:56;14.35;;;6.60;;
34200;SDS011;20469;55.638;37.670;2024-02-28T04:39:23;29.27;;;10.40;;
34200;SDS011;20469;55.638;37.670;2024-02-28T04:41:51;11.52;;;6.60;;
34200;SDS011;20469;55.638;37.670;2024-02-28T04:44:19;11.98;;;5.82;;
34200;SDS011;20469;55.638;37.670;2024-02-28T04:46:47;11.57;;;6.07;;
34200;SDS011;20469;55.638;37.670;2024-02-28T04:49:15;11.70;;;6.22;;
34200;SDS011;20469;55.638;37.670;2024-02-28T04:51:42;14.13;;;6.70;;
34200;SDS011;20469;55.638;37.670;2024-02-28T04:54:10;11.13;;;6.00;;
34200;SDS011;20469;55.638;37.670;2024-02-28T04:56:41;11.43;;;6.40;;
34200;SDS011;20469;55.638;37.670;2024-02-28T04:59:12;10.20;;;5.63;;
34200;SDS011;20469;55.638;37.670;2024-02-28T05:01:40;11.10;;;5.72;;
34200;SDS011;20469;55.638;37.670;2024-02-28T05:04:09;10.50;;;6.13;;
34200;SDS011;20469;55.638;37.670;2024-02-28T05:06:38;13.00;;;6.18;;
34200;SDS011;20469;55.638;37.670;2024-02-28T05:09:06;12.38;;;5.40;;
34200;SDS011;20469;55.638;37.670;2024-02-28T05:11:35;9.98;;;5.50;;
34200;SDS011;20469;55.638;37.670;2024-02-28T05:14:03;9.60;;;5.72;;
34200;SDS011;20469;55.638;37.670;2024-02-28T05:16:31;9.40;;;5.93;;
34200;SDS011;20469;55.638;37.670;2024-02-28T05:19:00;11.13;;;5.88;;
34200;SDS011;20469;55.638;37.670;2024-02-28T05:21:29;11.90;;;5.80;;
34200;SDS011;20469;55.638;37.670;2024-02-28T05:23:56;10.10;;;5.10;;
34200;SDS011;20469;55.638;37.670;2024-02-28T05:26:24;12.75;;;5.65;;
34200;SDS011;20469;55.638;37.670;2024-02-28T05:28:52;8.35;;;4.68;;
34200;SDS011;20469;55.638;37.670;2024-02-28T05:31:21;12.68;;;5.68;;
34200;SDS011;20469;55.638;37.670;2024-02-28T05:33:52;10.60;;;5.22;;
34200;SDS011;20469;55.638;37.670;2024-02-28T05:36:23;11.90;;;5.43;;
34200;SDS011;20469;55.638;37.670;2024-02-28T05:38:52;11.93;;;5.30;;
34200;SDS011;20469;55.638;37.670;2024-02-28T05:41:20;10.18;;;5.35;;
34200;SDS011;20469;55.638;37.670;2024-02-28T05:43:48;11.57;;;5.25;;
34200;SDS011;20469;55.638;37.670;2024-02-28T05:46:16;9.18;;;5.05;;
34200;SDS011;20469;55.638;37.670;2024-02-28T05:48:44;8.80;;;4.60;;
34200;SDS011;20469;55.638;37.670;2024-02-28T05:51:13;11.43;;;4.70;;
34200;SDS011;20469;55.638;37.670;2024-02-28T05:53:41;6.68;;;4.03;;
34200;SDS011;20469;55.638;37.670;2024-02-28T05:56:10;10.85;;;5.68;;
34200;SDS011;20469;55.638;37.670;2024-02-28T05:58:41;13.57;;;5.60;;
34200;SDS011;20469;55.638;37.670;2024-02-28T06:01:10;12.20;;;4.85;;
34200;SDS011;20469;55.638;37.670;2024-02-28T06:03:38;10.20;;;6.03;;
34200;SDS011;20469;55.638;37.670;2024-02-28T06:06:06;9.60;;;5.15;;
34200;SDS011;20469;55.638;37.670;2024-02-28T06:08:35;9.02;;;5.25;;
34200;SDS011;20469;55.638;37.670;2024-02-28T06:11:04;9.77;;;5.20;;
34200;SDS011;20469;55.638;37.670;2024-02-28T06:13:32;8.93;;;4.65;;
34200;SDS011;20469;55.638;37.670;2024-02-28T06:16:00;11.23;;;5.30;;
34200;SDS011;20469;55.638;37.670;2024-02-28T06:18:28;5.20;;;3.47;;
34200;SDS011;20469;55.638;37.670;2024-02-28T06:21:00;10.52;;;4.95;;
34200;SDS011;20469;55.638;37.670;2024-02-28T06:23:28;8.18;;;4.60;;
34200;SDS011;20469;55.638;37.670;2024-02-28T06:25:56;10.18;;;5.25;;
34200;SDS011;20469;55.638;37.670;2024-02-28T06:28:24;8.10;;;4.43;;
34200;SDS011;20469;55.638;37.670;2024-02-28T06:30:53;5.43;;;3.97;;
34200;SDS011;20469;55.638;37.670;2024-02-28T06:33:20;12.88;;;5.18;;
34200;SDS011;20469;55.638;37.670;2024-02-28T06:35:49;8.82;;;4.95;;
34200;SDS011;20469;55.638;37.670;2024-02-28T06:38:17;7.55;;;3.67;;
34200;SDS011;20469;55.638;37.670;2024-02-28T06:40:46;9.23;;;4.13;;
34200;SDS011;20469;55.638;37.670;2024-02-28T06:43:14;10.93;;;4.82;;
34200;SDS011;20469;55.638;37.670;2024-02-28T06:45:43;9.68;;;4.53;;
34200;SDS011;20469;55.638;37.670;2024-02-28T06:48:11;6.72;;;3.03;;
34200;SDS011;20469;55.638;37.670;2024-02-28T06:50:39;11.10;;;5.00;;
34200;SDS011;20469;55.638;37.670;2024-02-28T06:53:07;7.75;;;3.85;;
34200;SDS011;20469;55.638;37.670;2024-02-28T06:55:35;7.68;;;4.47;;
34200;SDS011;20469;55.638;37.670;2024-02-28T06:58:03;10.05;;;4.35;;
34200;SDS011;20469;55.638;37.670;2024-02-28T07:00:31;8.55;;;3.83;;
34200;SDS011;20469;55.638;37.670;2024-02-28T07:02:59;7.63;;;4.78;;
34200;SDS011;20469;55.638;37.670;2024-02-28T07:05:27;10.45;;;5.28;;
34200;SDS011;20469;55.638;37.670;2024-02-28T07:07:55;8.40;;;3.83;;
34200;SDS011;20469;55.638;37.670;2024-02-28T07:10:22;10.65;;;4.78;;
34200;SDS011;20469;55.638;37.670;2024-02-28T07:12:50;11.18;;;4.82;;
34200;SDS011;20469;55.638;37.670;2024-02-28T07:15:18;12.95;;;5.47;;
34200;SDS011;20469;55.638;37.670;2024-02-28T07:17:48;11.82;;;5.80;;
34200;SDS011;20469;55.638;37.670;2024-02-28T07:20:15;9.55;;;4.45;;
34200;SDS011;20469;55.638;37.670;2024-02-28T07:22:44;9.90;;;4.55;;
34200;SDS011;20469;55.638;37.670;2024-02-28T07:25:13;10.77;;;6.40;;
34200;SDS011;20469;55.638;37.670;2024-02-28T07:27:40;10.93;;;6.10;;
34200;SDS011;20469;55.638;37.670;2024-02-28T07:30:08;10.23;;;4.60;;
34200;SDS011;20469;55.638;37.670;2024-02-28T07:32:36;10.50;;;4.97;;
34200;SDS011;20469;55.638;37.670;2024-02-28T07:35:04;15.23;;;4.32;;
34200;SDS011;20469;55.638;37.670;2024-02-28T07:37:32;9.13;;;4.90;;
34200;SDS011;20469;55.638;37.670;2024-02-28T07:40:02;8.02;;;4.70;;
34200;SDS011;20469;55.638;37.670;2024-02-28T07:42:30;9.93;;;4.25;;
34200;SDS011;20469;55.638;37.670;2024-02-28T07:44:58;8.80;;;4.97;;
34200;SDS011;20469;55.638;37.670;2024-02-28T07:47:27;7.85;;;3.80;;
34200;SDS011;20469;55.638;37.670;2024-02-28T07:49:56;10.13;;;5.63;;
34200;SDS011;20469;55.638;37.670;2024-02-28T07:52:24;16.23;;;5.53;;
34200;SDS011;20469;55.638;37.670;2024-02-28T07:54:52;11.00;;;5.32;;
34200;SDS011;20469;55.638;37.670;2024-02-28T07:57:21;9.85;;;4.68;;
34200;SDS011;20469;55.638;37.670;2024-02-28T07:59:49;11.05;;;5.78;;
34200;SDS011;20469;55.638;37.670;2024-02-28T08:02:17;10.10;;;5.03;;
34200;SDS011;20469;55.638;37.670;2024-02-28T08:04:48;9.88;;;4.82;;
34200;SDS011;20469;55.638;37.670;2024-02-28T08:07:17;11.57;;;5.13;;
34200;SDS011;20469;55.638;37.670;2024-02-28T08:09:45;13.60;;;5.10;;
34200;SDS011;20469;55.638;37.670;2024-02-28T08:12:13;9.27;;;4.45;;
34200;SDS011;20469;55.638;37.670;2024-02-28T08:14:42;9.38;;;5.45;;
34200;SDS011;20469;55.638;37.670;2024-02-28T08:17:10;17.20;;;6.28;;
34200;SDS011;20469;55.638;37.670;2024-02-28T08:19:41;11.88;;;4.68;;
34200;SDS011;20469;55.638;37.670;2024-02-28T08:22:08;13.88;;;5.63;;
34200;SDS011;20469;55.638;37.670;2024-02-28T08:24:37;10.00;;;6.10;;
34200;SDS011;20469;55.638;37.670;2024-02-28T08:27:05;12.05;;;5.53;;
34200;SDS011;20469;55.638;37.670;2024-02-28T08:29:34;7.05;;;3.80;;
34200;SDS011;20469;55.638;37.670;2024-02-28T08:32:03;11.45;;;5.40;;
34200;SDS011;20469;55.638;37.670;2024-02-28T08:34:31;6.55;;;3.67;;
34200;SDS011;20469;55.638;37.670;2024-02-28T08:36:59;8.30;;;3.67;;
34200;SDS011;20469;55.638;37.670;2024-02-28T08:39:27;11.10;;;5.55;;
34200;SDS011;20469;55.638;37.670;2024-02-28T08:41:55;11.30;;;5.60;;
34200;SDS011;20469;55.638;37.670;2024-02-28T08:44:22;8.73;;;4.95;;
34200;SDS011;20469;55.638;37.670;2024-02-28T08:46:50;11.77;;;5.72;;
34200;SDS011;20469;55.638;37.670;2024-02-28T08:49:19;7.53;;;4.60;;
34200;SDS011;20469;55.638;37.670;2024-02-28T08:51:46;8.25;;;4.82;;
34200;SDS011;20469;55.638;37.670;2024-02-28T08:54:16;10.65;;;5.18;;
34200;SDS011;20469;55.638;37.670;2024-02-28T08:56:44;10.82;;;6.05;;
34200;SDS011;20469;55.638;37.670;2024-02-28T08:59:22;11.13;;;5.85;;
34200;SDS011;20469;55.638;37.670;2024-02-28T09:01:50;7.88;;;5.25;;
34200;SDS011;20469;55.638;37.670;2024-02-28T09:04:18;8.35;;;4.50;;
34200;SDS011;20469;55.638;37.670;2024-02-28T09:06:46;11.32;;;4.95;;
34200;SDS011;20469;55.638;37.670;2024-02-28T09:09:14;8.95;;;4.43;;
34200;SDS011;20469;55.638;37.670;2024-02-28T09:11:42;11.00;;;5.30;;
34200;SDS011;20469;55.638;37.670;2024-02-28T09:14:10;10.82;;;5.35;;
34200;SDS011;20469;55.638;37.670;2024-02-28T09:16:39;13.23;;;6.40;;
34200;SDS011;20469;55.638;37.670;2024-02-28T09:19:06;12.52;;;5.38;;
34200;SDS011;20469;55.638;37.670;2024-02-28T09:21:35;8.25;;;4.60;;
34200;SDS011;20469;55.638;37.670;2024-02-28T09:24:03;11.35;;;5.88;;
34200;SDS011;20469;55.638;37.670;2024-02-28T09:26:31;10.68;;;6.60;;
34200;SDS011;20469;55.638;37.670;2024-02-28T09:28:59;10.00;;;5.47;;
34200;SDS011;20469;55.638;37.670;2024-02-28T09:31:28;7.35;;;4.85;;
34200;SDS011;20469;55.638;37.670;2024-02-28T09:33:56;11.73;;;6.38;;
34200;SDS011;20469;55.638;37.670;2024-02-28T09:36:25;10.18;;;5.80;;
34200;SDS011;20469;55.638;37.670;2024-02-28T09:38:52;13.18;;;6.20;;
34200;SDS011;20469;55.638;37.670;2024-02-28T09:41:20;10.10;;;6.03;;
34200;SDS011;20469;55.638;37.670;2024-02-28T09:43:49;12.27;;;6.43;;
34200;SDS011;20469;55.638;37.670;2024-02-28T09:46:17;15.18;;;6.25;;
34200;SDS011;20469;55.638;37.670;2024-02-28T09:48:45;14.68;;;6.53;;
34200;SDS011;20469;55.638;37.670;2024-02-28T09:51:15;12.40;;;6.63;;
34200;SDS011;20469;55.638;37.670;2024-02-28T09:53:44;11.70;;;6.10;;
34200;SDS011;20469;55.638;37.670;2024-02-28T09:56:14;13.45;;;6.10;;
34200;SDS011;20469;55.638;37.670;2024-02-28T09:58:42;10.20;;;6.32;;
34200;SDS011;20469;55.638;37.670;2024-02-28T10:01:13;10.02;;;6.40;;
34200;SDS011;20469;55.638;37.670;2024-02-28T10:03:45;13.82;;;6.32;;
34200;SDS011;20469;55.638;37.670;2024-02-28T10:06:15;12.57;;;6.15;;
34200;SDS011;20469;55.638;37.670;2024-02-28T10:08:44;12.98;;;6.78;;
34200;SDS011;20469;55.638;37.670;2024-02-28T10:11:21;12.93;;;6.45;;
34200;SDS011;20469;55.638;37.670;2024-02-28T10:13:49;12.50;;;6.03;;
34200;SDS011;20469;55.638;37.670;2024-02-28T10:16:18;14.45;;;6.78;;
34200;SDS011;20469;55.638;37.670;2024-02-28T10:18:46;12.65;;;6.80;;
34200;SDS011;20469;55.638;37.670;2024-02-28T10:21:15;15.15;;;6.50;;
34200;SDS011;20469;55.638;37.670;2024-02-28T10:23:44;10.07;;;5.78;;
34200;SDS011;20469;55.638;37.670;2024-02-28T10:26:13;12.77;;;6.30;;
34200;SDS011;20469;55.638;37.670;2024-02-28T10:28:41;13.48;;;6.80;;
34200;SDS011;20469;55.638;37.670;2024-02-28T10:31:11;13.77;;;7.10;;
34200;SDS011;20469;55.638;37.670;2024-02-28T10:33:41;11.05;;;6.80;;
34200;SDS011;20469;55.638;37.670;2024-02-28T10:36:09;15.73;;;7.65;;
34200;SDS011;20469;55.638;37.670;2024-02-28T10:38:38;11.95;;;6.53;;
34200;SDS011;20469;55.638;37.670;2024-02-28T10:41:06;10.52;;;6.47;;
34200;SDS011;20469;55.638;37.670;2024-02-28T10:43:38;15.88;;;6.60;;
34200;SDS011;20469;55.638;37.670;2024-02-28T10:46:07;14.85;;;7.35;;
34200;SDS011;20469;55.638;37.670;2024-02-28T10:48:55;12.63;;;7.22;;
34200;SDS011;20469;55.638;37.670;2024-02-28T10:51:24;18.33;;;7.53;;
34200;SDS011;20469;55.638;37.670;2024-02-28T10:54:00;11.38;;;6.10;;
34200;SDS011;20469;55.638;37.670;2024-02-28T10:56:30;13.68;;;7.22;;
34200;SDS011;20469;55.638;37.670;2024-02-28T10:58:59;13.48;;;7.18;;
34200;SDS011;20469;55.638;37.670;2024-02-28T11:01:29;15.52;;;7.72;;
34200;SDS011;20469;55.638;37.670;2024-02-28T11:03:57;13.93;;;6.88;;
34200;SDS011;20469;55.638;37.670;2024-02-28T11:06:26;13.35;;;6.35;;
34200;SDS011;20469;55.638;37.670;2024-02-28T11:08:54;10.93;;;6.60;;
34200;SDS011;20469;55.638;37.670;2024-02-28T11:11:23;13.20;;;7.00;;
34200;SDS011;20469;55.638;37.670;2024-02-28T11:13:55;14.30;;;7.05;;
34200;SDS011;20469;55.638;37.670;2024-02-28T11:16:27;16.67;;;7.95;;
34200;SDS011;20469;55.638;37.670;2024-02-28T11:18:56;16.20;;;8.43;;
34200;SDS011;20469;55.638;37.670;2024-02-28T11:21:27;14.40;;;7.35;;
34200;SDS011;20469;55.638;37.670;2024-02-28T11:23:59;12.52;;;7.57;;
34200;SDS011;20469;55.638;37.670;2024-02-28T11:26:28;13.63;;;7.13;;
34200;SDS011;20469;55.638;37.670;2024-02-28T11:28:56;14.38;;;7.45;;
34200;SDS011;20469;55.638;37.670;2024-02-28T11:31:24;10.93;;;7.18;;
34200;SDS011;20469;55.638;37.670;2024-02-28T11:33:51;12.30;;;6.53;;
34200;SDS011;20469;55.638;37.670;2024-02-28T11:36:19;13.82;;;7.05;;
34200;SDS011;20469;55.638;37.670;2024-02-28T11:38:47;11.57;;;7.22;;
34200;SDS011;20469;55.638;37.670;2024-02-28T11:41:24;11.50;;;7.05;;
34200;SDS011;20469;55.638;37.670;2024-02-28T11:43:54;12.00;;;7.03;;
34200;SDS011;20469;55.638;37.670;2024-02-28T11:46:23;10.70;;;6.85;;
34200;SDS011;20469;55.638;37.670;2024-02-28T11:48:50;15.27;;;7.50;;
34200;SDS011;20469;55.638;37.670;2024-02-28T11:51:21;13.98;;;6.63;;
34200;SDS011;20469;55.638;37.670;2024-02-28T11:53:51;12.93;;;6.95;;
34200;SDS011;20469;55.638;37.670;2024-02-28T11:56:19;11.75;;;6.80;;
34200;SDS011;20469;55.638;37.670;2024-02-28T11:58:54;11.73;;;6.40;;
34200;SDS011;20469;55.638;37.670;2024-02-28T12:01:35;13.68;;;7.47;;
34200;SDS011;20469;55.638;37.670;2024-02-28T12:04:04;12.82;;;6.90;;
34200;SDS011;20469;55.638;37.670;2024-02-28T12:06:34;13.73;;;6.97;;
34200;SDS011;20469;55.638;37.670;2024-02-28T12:09:06;10.93;;;6.63;;
34200;SDS011;20469;55.638;37.670;2024-02-28T12:11:36;10.38;;;6.40;;
34200;SDS011;20469;55.638;37.670;2024-02-28T12:14:05;10.48;;;6.75;;
34200;SDS011;20469;55.638;37.670;2024-02-28T12:16:36;15.05;;;7.20;;
34200;SDS011;20469;55.638;37.670;2024-02-28T12:19:08;12.07;;;6.63;;
34200;SDS011;20469;55.638;37.670;2024-02-28T12:21:37;15.13;;;7.25;;
34200;SDS011;20469;55.638;37.670;2024-02-28T12:24:09;14.10;;;7.25;;
34200;SDS011;20469;55.638;37.670;2024-02-28T12:26:37;13.82;;;6.82;;
34200;SDS011;20469;55.638;37.670;2024-02-28T12:29:06;10.02;;;6.50;;
34200;SDS011;20469;55.638;37.670;2024-02-28T12:31:34;13.40;;;7.72;;
34200;SDS011;20469;55.638;37.670;2024-02-28T12:34:01;13.02;;;6.75;;
34200;SDS011;20469;55.638;37.670;2024-02-28T12:36:32;12.15;;;7.13;;
34200;SDS011;20469;55.638;37.670;2024-02-28T12:39:01;11.52;;;6.40;;
34200;SDS011;20469;55.638;37.670;2024-02-28T12:41:29;13.18;;;6.50;;
34200;SDS011;20469;55.638;37.670;2024-02-28T12:43:57;13.98;;;6.53;;
34200;SDS011;20469;55.638;37.670;2024-02-28T12:46:25;12.85;;;6.53;;
34200;SDS011;20469;55.638;37.670;2024-02-28T12:48:53;16.15;;;6.82;;
34200;SDS011;20469;55.638;37.670;2024-02-28T12:51:42;12.80;;;6.55;;
34200;SDS011;20469;55.638;37.670;2024-02-28T12:54:11;12.43;;;6.07;;
34200;SDS011;20469;55.638;37.670;2024-02-28T12:56:42;13.57;;;6.88;;
34200;SDS011;20469;55.638;37.670;2024-02-28T12:59:11;11.85;;;6.22;;
34200;SDS011;20469;55.638;37.670;2024-02-28T13:01:39;10.75;;;6.40;;
34200;SDS011;20469;55.638;37.670;2024-02-28T13:04:08;11.82;;;6.50;;
34200;SDS011;20469;55.638;37.670;2024-02-28T13:06:38;15.35;;;7.30;;
34200;SDS011;20469;55.638;37.670;2024-02-28T13:09:09;11.23;;;6.93;;
34200;SDS011;20469;55.638;37.670;2024-02-28T13:11:39;14.05;;;7.03;;
34200;SDS011;20469;55.638;37.670;2024-02-28T13:14:07;12.93;;;6.18;;
34200;SDS011;20469;55.638;37.670;2024-02-28T13:16:36;13.05;;;6.63;;
34200;SDS011;20469;55.638;37.670;2024-02-28T13:19:04;11.95;;;6.32;;
34200;SDS011;20469;55.638;37.670;2024-02-28T13:21:32;11.10;;;6.45;;
34200;SDS011;20469;55.638;37.670;2024-02-28T13:24:01;13.82;;;6.75;;
34200;SDS011;20469;55.638;37.670;2024-02-28T13:26:29;15.20;;;7.53;;
34200;SDS011;20469;55.638;37.670;2024-02-28T13:28:57;12.27;;;7.30;;
34200;SDS011;20469;55.638;37.670;2024-02-28T13:31:25;12.73;;;6.90;;
34200;SDS011;20469;55.638;37.670;2024-02-28T13:33:53;13.35;;;7.32;;
34200;SDS011;20469;55.638;37.670;2024-02-28T13:36:21;13.20;;;6.70;;
34200;SDS011;20469;55.638;37.670;2024-02-28T13:38:49;10.88;;;6.63;;
34200;SDS011;20469;55.638;37.670;2024-02-28T13:41:17;11.23;;;7.00;;
34200;SDS011;20469;55.638;37.670;2024-02-28T13:43:46;10.82;;;6.35;;
34200;SDS011;20469;55.638;37.670;2024-02-28T13:46:14;12.15;;;6.90;;
34200;SDS011;20469;55.638;37.670;2024-02-28T13:48:43;12.35;;;6.93;;
34200;SDS011;20469;55.638;37.670;2024-02-28T13:51:10;12.73;;;6.03;;
34200;SDS011;20469;55.638;37.670;2024-02-28T13:53:38;11.50;;;6.43;;
34200;SDS011;20469;55.638;37.670;2024-02-28T13:56:06;12.18;;;6.50;;
34200;SDS011;20469;55.638;37.670;2024-02-28T13:58:34;17.05;;;6.57;;
34200;SDS011;20469;55.638;37.670;2024-02-28T14:01:11;11.65;;;6.47;;
34200;SDS011;20469;55.638;37.670;2024-02-28T14:03:39;14.15;;;6.85;;
34200;SDS011;20469;55.638;37.670;2024-02-28T14:06:08;14.68;;;7.10;;
34200;SDS011;20469;55.638;37.670;2024-02-28T14:08:36;13.23;;;6.97;;
34200;SDS011;20469;55.638;37.670;2024-02-28T14:11:09;13.63;;;7.07;;
34200;SDS011;20469;55.638;37.670;2024-02-28T14:13:37;10.18;;;6.15;;
34200;SDS011;20469;55.638;37.670;2024-02-28T14:16:06;10.68;;;5.47;;
34200;SDS011;20469;55.638;37.670;2024-02-28T14:18:35;10.25;;;6.38;;
34200;SDS011;20469;55.638;37.670;2024-02-28T14:21:03;14.65;;;6.03;;
34200;SDS011;20469;55.638;37.670;2024-02-28T14:23:33;14.15;;;6.70;;
34200;SDS011;20469;55.638;37.670;2024-02-28T14:26:02;13.43;;;6.50;;
34200;SDS011;20469;55.638;37.670;2024-02-28T14:28:30;12.82;;;6.25;;
34200;SDS011;20469;55.638;37.670;2024-02-28T14:30:58;15.27;;;6.40;;